Time;durP1;ratioP1;P1;durP2;ratioP2;P2;SDS_P1;SDS_P2;PMS_P1;PMS_P2;Temp;Humidity;BMP_temperature;BMP_pressure;BME280_temperature;BME280_humidity;BME280_pressure;Samples;Min_cycle;Max_cycle;Signal;HPM_P1;HPM_P2
2022/03/05 00:00:44;;;;;;;4.25;1.70;;;;;;;;;;7388180;19;20010;-73
2022/03/05 00:03:11;;;;;;;3.63;1.52;;;;;;;;;;7388221;19;20461;-72
2022/03/05 00:05:36;;;;;;;3.33;1.48;;;;;;;;;;7386829;19;20460;-72
2022/03/05 00:08:03;;;;;;;6.60;1.90;;;;;;;;;;7387513;19;20010;-73
2022/03/05 00:10:28;;;;;;;5.25;1.85;;;;;;;;;;7385594;19;20116;-73
2022/03/05 00:12:53;;;;;;;4.00;1.55;;;;;;;;;;7387921;19;20053;-72
2022/03/05 00:15:20;;;;;;;4.28;1.60;;;;;;;;;;7386064;19;19998;-73
2022/03/05 00:17:47;;;;;;;3.67;1.70;;;;;;;;;;7386223;19;20485;-73
2022/03/05 00:20:13;;;;;;;4.03;1.50;;;;;;;;;;7383797;19;20013;-73
2022/03/05 00:22:38;;;;;;;3.88;1.92;;;;;;;;;;7386667;19;20712;-73
2022/03/05 00:25:04;;;;;;;2.33;1.25;;;;;;;;;;7386781;19;20003;-72
2022/03/05 00:27:30;;;;;;;6.47;1.85;;;;;;;;;;7384151;19;20006;-73
2022/03/05 00:29:55;;;;;;;4.82;1.95;;;;;;;;;;7384685;19;20171;-73
2022/03/05 00:32:21;;;;;;;5.78;2.22;;;;;;;;;;7386338;19;20030;-73
2022/03/05 00:34:47;;;;;;;4.28;1.40;;;;;;;;;;7386487;19;20006;-72
2022/03/05 00:37:12;;;;;;;5.90;2.03;;;;;;;;;;7382198;19;20034;-73
2022/03/05 00:39:37;;;;;;;5.18;2.10;;;;;;;;;;7385691;19;20166;-72
2022/03/05 00:42:04;;;;;;;5.65;2.15;;;;;;;;;;7386524;19;20360;-73
2022/03/05 00:44:29;;;;;;;6.03;1.88;;;;;;;;;;7386854;19;19999;-73
2022/03/05 00:46:55;;;;;;;5.38;1.90;;;;;;;;;;7381984;19;20105;-73
2022/03/05 00:49:21;;;;;;;4.47;1.85;;;;;;;;;;7384245;19;20009;-73
2022/03/05 00:51:46;;;;;;;7.55;2.17;;;;;;;;;;7384210;19;20010;-72
2022/03/05 00:54:12;;;;;;;5.35;1.83;;;;;;;;;;7386372;19;20155;-72
2022/03/05 00:56:37;;;;;;;5.50;1.60;;;;;;;;;;7381343;19;20007;-72
2022/03/05 00:59:02;;;;;;;4.70;1.73;;;;;;;;;;7384347;19;20007;-74
2022/03/05 01:01:28;;;;;;;3.17;1.50;;;;;;;;;;7383999;19;20013;-72
2022/03/05 01:03:53;;;;;;;3.58;1.88;;;;;;;;;;7386042;19;20010;-73
2022/03/05 01:06:19;;;;;;;3.92;1.60;;;;;;;;;;7382231;19;20085;-72
2022/03/05 01:08:44;;;;;;;3.33;1.38;;;;;;;;;;7384222;19;20029;-73
2022/03/05 01:11:12;;;;;;;3.75;1.63;;;;;;;;;;7383439;19;20375;-72
2022/03/05 01:13:37;;;;;;;4.30;1.30;;;;;;;;;;7383200;19;20356;-73
2022/03/05 01:16:03;;;;;;;6.97;1.88;;;;;;;;;;7382239;19;20484;-74
2022/03/05 01:18:28;;;;;;;2.88;1.67;;;;;;;;;;7383781;19;20373;-73
2022/03/05 01:20:53;;;;;;;3.28;1.48;;;;;;;;;;7383193;19;20070;-73
2022/03/05 01:23:19;;;;;;;4.40;1.52;;;;;;;;;;7382812;19;20019;-72
2022/03/05 01:25:44;;;;;;;4.82;1.80;;;;;;;;;;7383099;19;20025;-73
2022/03/05 01:28:09;;;;;;;3.17;1.17;;;;;;;;;;7380226;19;20040;-74
2022/03/05 01:30:35;;;;;;;4.03;1.75;;;;;;;;;;7384069;19;20002;-73
2022/03/05 01:33:00;;;;;;;4.78;1.90;;;;;;;;;;7383570;19;20671;-73
2022/03/05 01:35:25;;;;;;;4.68;1.73;;;;;;;;;;7382360;19;20021;-72
2022/03/05 01:37:51;;;;;;;3.13;1.52;;;;;;;;;;7384343;19;20006;-72
2022/03/05 01:40:16;;;;;;;4.07;1.60;;;;;;;;;;7382150;19;20017;-73
2022/03/05 01:42:42;;;;;;;2.58;1.30;;;;;;;;;;7381988;19;20006;-72
2022/03/05 01:45:10;;;;;;;4.15;1.45;;;;;;;;;;7381962;19;20114;-72
2022/03/05 01:47:37;;;;;;;4.28;1.40;;;;;;;;;;7381135;19;20014;-72
2022/03/05 01:50:03;;;;;;;3.88;1.40;;;;;;;;;;7383402;19;20339;-73
2022/03/05 01:52:28;;;;;;;5.30;1.77;;;;;;;;;;7381819;19;20017;-72
2022/03/05 01:54:53;;;;;;;2.55;1.52;;;;;;;;;;7384104;19;20017;-72
2022/03/05 01:57:19;;;;;;;3.58;1.65;;;;;;;;;;7384428;19;20014;-73
2022/03/05 01:59:44;;;;;;;3.70;1.58;;;;;;;;;;7383411;19;20002;-72
2022/03/05 02:02:10;;;;;;;7.30;2.10;;;;;;;;;;7381590;19;20021;-72
2022/03/05 02:04:35;;;;;;;4.30;1.67;;;;;;;;;;7384018;19;20011;-73
2022/03/05 02:07:00;;;;;;;6.07;1.98;;;;;;;;;;7381647;19;20388;-73
2022/03/05 02:09:26;;;;;;;4.35;1.52;;;;;;;;;;7384106;19;20486;-73
2022/03/05 02:11:51;;;;;;;6.72;1.67;;;;;;;;;;7382966;19;20040;-72
2022/03/05 02:14:17;;;;;;;3.95;1.65;;;;;;;;;;7383792;19;20355;-74
2022/03/05 02:16:44;;;;;;;5.53;1.92;;;;;;;;;;7380091;19;20013;-73
2022/03/05 02:19:09;;;;;;;2.55;1.20;;;;;;;;;;7383858;19;20467;-72
2022/03/05 02:21:36;;;;;;;2.75;1.33;;;;;;;;;;7383648;19;19999;-72
2022/03/05 02:24:02;;;;;;;3.13;1.50;;;;;;;;;;7383545;19;20047;-71
2022/03/05 02:26:27;;;;;;;3.05;1.50;;;;;;;;;;7381380;19;20449;-73
2022/03/05 02:28:53;;;;;;;5.15;1.85;;;;;;;;;;7383152;19;20017;-73
2022/03/05 02:31:18;;;;;;;5.20;1.27;;;;;;;;;;7382792;19;20009;-72
2022/03/05 02:33:44;;;;;;;4.82;1.80;;;;;;;;;;7380950;19;20014;-71
2022/03/05 02:36:10;;;;;;;4.28;1.65;;;;;;;;;;7380665;19;20023;-73
2022/03/05 02:38:36;;;;;;;4.53;1.83;;;;;;;;;;7381017;19;21026;-72
2022/03/05 02:41:02;;;;;;;3.45;1.25;;;;;;;;;;7384873;19;20003;-72
2022/03/05 02:43:27;;;;;;;4.38;1.73;;;;;;;;;;7383561;19;20003;-72
2022/03/05 02:45:53;;;;;;;2.92;1.33;;;;;;;;;;7382405;19;20003;-72
2022/03/05 02:48:20;;;;;;;3.83;1.42;;;;;;;;;;7381103;19;20011;-73
2022/03/05 02:50:47;;;;;;;3.85;1.55;;;;;;;;;;7381508;19;20010;-73
2022/03/05 02:53:13;;;;;;;3.42;1.75;;;;;;;;;;7382542;19;20367;-72
2022/03/05 02:55:38;;;;;;;4.93;1.77;;;;;;;;;;7384368;19;20331;-72
2022/03/05 02:58:04;;;;;;;4.95;1.83;;;;;;;;;;7386555;19;20021;-73
2022/03/05 03:00:29;;;;;;;5.65;1.42;;;;;;;;;;7387284;19;20027;-73
2022/03/05 03:02:55;;;;;;;3.28;1.55;;;;;;;;;;7390316;19;20038;-70
2022/03/05 03:05:21;;;;;;;3.72;1.48;;;;;;;;;;7388927;19;20010;-73
2022/03/05 03:07:47;;;;;;;4.90;1.67;;;;;;;;;;7389731;19;20032;-71
2022/03/05 03:10:13;;;;;;;5.45;1.58;;;;;;;;;;7388733;19;20006;-75
2022/03/05 03:12:39;;;;;;;3.63;1.45;;;;;;;;;;7390733;19;20051;-73
2022/03/05 03:15:06;;;;;;;2.65;1.33;;;;;;;;;;7389908;19;20011;-73
2022/03/05 03:17:51;;;;;;;5.20;1.50;;;;;;;;;;7391799;19;20421;-74
2022/03/05 03:20:27;;;;;;;3.53;1.40;;;;;;;;;;7389893;19;20027;-73
2022/03/05 03:22:53;;;;;;;3.25;1.40;;;;;;;;;;7389827;19;20022;-73
2022/03/05 03:25:19;;;;;;;4.50;1.58;;;;;;;;;;7387086;19;20073;-72
2022/03/05 03:27:44;;;;;;;2.40;1.13;;;;;;;;;;7386036;19;20473;-72
2022/03/05 03:30:12;;;;;;;6.05;1.70;;;;;;;;;;7387940;19;20003;-72
2022/03/05 03:32:39;;;;;;;4.40;1.98;;;;;;;;;;7388301;19;20019;-71
2022/03/05 03:35:06;;;;;;;5.20;1.58;;;;;;;;;;7387116;19;20050;-72
2022/03/05 03:37:31;;;;;;;4.78;1.80;;;;;;;;;;7389067;19;20017;-72
2022/03/05 03:39:58;;;;;;;5.68;1.98;;;;;;;;;;7385292;19;20002;-72
2022/03/05 03:42:24;;;;;;;5.25;1.83;;;;;;;;;;7386999;19;20014;-71
2022/03/05 03:44:50;;;;;;;5.22;1.38;;;;;;;;;;7389330;19;20066;-72
2022/03/05 03:47:16;;;;;;;4.38;1.70;;;;;;;;;;7386151;19;20011;-71
2022/03/05 03:49:42;;;;;;;5.50;1.73;;;;;;;;;;7388672;19;19998;-72
2022/03/05 03:52:07;;;;;;;4.80;1.80;;;;;;;;;;7387367;19;20018;-71
2022/03/05 03:54:32;;;;;;;3.53;1.90;;;;;;;;;;7387039;19;20008;-72
2022/03/05 03:56:58;;;;;;;3.25;1.65;;;;;;;;;;7386596;19;20082;-72
2022/03/05 03:59:23;;;;;;;6.20;1.75;;;;;;;;;;7386179;19;19999;-72
2022/03/05 04:01:49;;;;;;;4.35;1.63;;;;;;;;;;7386725;19;20449;-72
2022/03/05 04:04:14;;;;;;;4.97;1.73;;;;;;;;;;7389675;19;20006;-72
2022/03/05 04:09:23;;;;;;;5.05;1.77;;;;;;;;;;7390436;19;20036;-72
2022/03/05 04:11:48;;;;;;;6.15;1.50;;;;;;;;;;7387456;19;20006;-72
2022/03/05 04:14:13;;;;;;;5.30;1.52;;;;;;;;;;7391076;19;20009;-71
2022/03/05 04:16:39;;;;;;;3.90;1.58;;;;;;;;;;7388414;19;20010;-73
2022/03/05 04:19:04;;;;;;;4.65;1.75;;;;;;;;;;7390080;19;19999;-72
2022/03/05 04:21:29;;;;;;;5.20;1.60;;;;;;;;;;7385859;19;20037;-73
2022/03/05 04:23:54;;;;;;;4.95;1.70;;;;;;;;;;7389398;19;20017;-72
2022/03/05 04:26:20;;;;;;;4.75;1.55;;;;;;;;;;7387853;19;20036;-73
2022/03/05 04:28:45;;;;;;;4.60;1.85;;;;;;;;;;7387145;19;20011;-72
2022/03/05 04:31:10;;;;;;;6.13;2.10;;;;;;;;;;7388023;19;20010;-72
2022/03/05 04:33:35;;;;;;;3.55;1.50;;;;;;;;;;7388481;19;20018;-72
2022/03/05 04:36:01;;;;;;;4.32;1.50;;;;;;;;;;7387401;19;20346;-72
2022/03/05 04:38:26;;;;;;;3.50;1.45;;;;;;;;;;7388711;19;20014;-71
2022/03/05 04:40:51;;;;;;;5.20;1.70;;;;;;;;;;7389462;19;20110;-72
2022/03/05 04:43:17;;;;;;;5.68;1.90;;;;;;;;;;7387512;19;20053;-72
2022/03/05 04:45:42;;;;;;;5.40;1.67;;;;;;;;;;7386795;19;20012;-72
2022/03/05 04:48:07;;;;;;;6.93;2.22;;;;;;;;;;7385930;19;20081;-72
2022/03/05 04:50:33;;;;;;;5.68;1.80;;;;;;;;;;7386693;19;20145;-73
2022/03/05 04:52:58;;;;;;;3.40;1.35;;;;;;;;;;7388001;19;20035;-72
2022/03/05 04:55:24;;;;;;;5.47;1.75;;;;;;;;;;7387159;19;20003;-73
2022/03/05 04:57:49;;;;;;;6.43;2.00;;;;;;;;;;7388194;19;20052;-73
2022/03/05 05:00:15;;;;;;;5.22;1.63;;;;;;;;;;7386541;19;20010;-72
2022/03/05 05:02:41;;;;;;;5.43;1.85;;;;;;;;;;7384666;19;20014;-72
2022/03/05 05:05:06;;;;;;;5.97;1.95;;;;;;;;;;7380526;19;20006;-72
2022/03/05 05:07:31;;;;;;;3.42;1.58;;;;;;;;;;7383976;19;20036;-72
2022/03/05 05:09:57;;;;;;;4.38;1.75;;;;;;;;;;7385005;19;20100;-72
2022/03/05 05:12:23;;;;;;;6.03;1.95;;;;;;;;;;7383892;19;20035;-72
2022/03/05 05:14:48;;;;;;;4.00;1.70;;;;;;;;;;7384696;19;20013;-73
2022/03/05 05:17:13;;;;;;;5.78;1.77;;;;;;;;;;7383290;19;20017;-72
2022/03/05 05:19:39;;;;;;;5.43;1.58;;;;;;;;;;7381655;19;20014;-72
2022/03/05 05:22:06;;;;;;;3.97;1.60;;;;;;;;;;7378027;19;20082;-73
2022/03/05 05:24:33;;;;;;;4.60;1.75;;;;;;;;;;7384933;19;20003;-72
2022/03/05 05:27:00;;;;;;;4.55;1.58;;;;;;;;;;7380612;19;20477;-72
2022/03/05 05:29:26;;;;;;;5.28;1.95;;;;;;;;;;7382395;19;20006;-72
2022/03/05 05:31:51;;;;;;;3.17;1.60;;;;;;;;;;7385113;19;20015;-72
2022/03/05 05:34:17;;;;;;;4.03;1.60;;;;;;;;;;7383738;19;19998;-73
2022/03/05 05:36:43;;;;;;;5.35;1.73;;;;;;;;;;7380741;19;20021;-73
2022/03/05 05:39:11;;;;;;;5.60;1.65;;;;;;;;;;7380536;19;20014;-73
2022/03/05 05:41:37;;;;;;;5.15;1.92;;;;;;;;;;7384418;19;20017;-72
2022/03/05 05:44:03;;;;;;;4.55;1.90;;;;;;;;;;7387274;19;20612;-72
2022/03/05 05:46:29;;;;;;;5.10;1.83;;;;;;;;;;7385641;19;20508;-71
2022/03/05 05:48:55;;;;;;;5.32;1.90;;;;;;;;;;7386936;19;20531;-72
2022/03/05 05:51:22;;;;;;;5.75;1.80;;;;;;;;;;7387906;19;20486;-72
2022/03/05 05:53:48;;;;;;;4.53;2.13;;;;;;;;;;7386355;19;20136;-72
2022/03/05 05:56:13;;;;;;;7.05;1.95;;;;;;;;;;7386841;19;20026;-71
2022/03/05 05:58:38;;;;;;;4.85;1.70;;;;;;;;;;7355194;19;20089;-72
2022/03/05 06:01:04;;;;;;;7.07;2.30;;;;;;;;;;7383885;19;19999;-73
2022/03/05 06:03:29;;;;;;;5.72;1.98;;;;;;;;;;7379892;19;20111;-72
2022/03/05 06:05:58;;;;;;;5.90;2.00;;;;;;;;;;7383337;19;20006;-72
2022/03/05 06:08:23;;;;;;;6.10;2.05;;;;;;;;;;7382601;19;20006;-72
2022/03/05 06:10:48;;;;;;;7.25;1.83;;;;;;;;;;7378403;19;20109;-72
2022/03/05 06:13:14;;;;;;;5.22;2.10;;;;;;;;;;7385358;19;21208;-73
2022/03/05 06:15:39;;;;;;;6.45;2.75;;;;;;;;;;7387478;19;20016;-71
2022/03/05 06:18:04;;;;;;;7.57;2.38;;;;;;;;;;7386899;19;20027;-73
2022/03/05 06:20:30;;;;;;;7.93;2.38;;;;;;;;;;7385866;19;20052;-72
2022/03/05 06:22:55;;;;;;;7.55;2.28;;;;;;;;;;7381158;19;20486;-73
2022/03/05 06:25:20;;;;;;;7.82;2.72;;;;;;;;;;7386442;19;20007;-72
2022/03/05 06:27:46;;;;;;;8.02;2.78;;;;;;;;;;7384439;19;20042;-73
2022/03/05 06:30:12;;;;;;;11.98;3.45;;;;;;;;;;7385401;19;20006;-73
2022/03/05 06:32:38;;;;;;;7.47;2.85;;;;;;;;;;7385708;19;20021;-73
2022/03/05 06:35:05;;;;;;;7.45;2.53;;;;;;;;;;7389458;19;20006;-73
2022/03/05 06:37:31;;;;;;;6.07;2.10;;;;;;;;;;7392664;19;20015;-73
2022/03/05 06:39:56;;;;;;;6.60;2.55;;;;;;;;;;7393684;19;20010;-73
2022/03/05 06:42:21;;;;;;;9.70;2.55;;;;;;;;;;7393971;19;20483;-73
2022/03/05 06:44:47;;;;;;;8.60;2.60;;;;;;;;;;7395559;19;20647;-73
2022/03/05 06:47:12;;;;;;;5.13;2.08;;;;;;;;;;7392508;19;20720;-73
2022/03/05 06:49:37;;;;;;;7.50;2.42;;;;;;;;;;7390851;19;20003;-73
2022/03/05 06:52:03;;;;;;;8.60;2.42;;;;;;;;;;7384662;19;20041;-72
2022/03/05 06:54:28;;;;;;;5.47;2.25;;;;;;;;;;7388711;19;20327;-73
2022/03/05 06:56:54;;;;;;;7.30;2.25;;;;;;;;;;7384743;19;20027;-72
2022/03/05 06:59:19;;;;;;;8.93;2.45;;;;;;;;;;7386748;19;20082;-72
2022/03/05 07:01:44;;;;;;;8.05;2.25;;;;;;;;;;7387623;19;20015;-72
2022/03/05 07:04:10;;;;;;;7.95;2.90;;;;;;;;;;7390595;19;20023;-73
2022/03/05 07:06:37;;;;;;;7.18;2.47;;;;;;;;;;7386040;19;20007;-72
2022/03/05 07:09:03;;;;;;;8.02;2.60;;;;;;;;;;7386629;19;20010;-72
2022/03/05 07:11:29;;;;;;;8.75;3.47;;;;;;;;;;7385340;19;20114;-72
2022/03/05 07:13:54;;;;;;;7.03;2.60;;;;;;;;;;7381462;19;20583;-71
2022/03/05 07:16:19;;;;;;;8.18;3.15;;;;;;;;;;7384553;19;20117;-71
2022/03/05 07:18:45;;;;;;;9.13;3.38;;;;;;;;;;7379506;19;20024;-71
2022/03/05 07:21:10;;;;;;;8.98;2.72;;;;;;;;;;7386768;19;20472;-72
2022/03/05 07:23:35;;;;;;;7.40;2.78;;;;;;;;;;7388156;19;20281;-72
2022/03/05 07:26:01;;;;;;;9.32;3.20;;;;;;;;;;7384622;19;20107;-72
2022/03/05 07:28:26;;;;;;;6.97;2.70;;;;;;;;;;7381102;19;20702;-72
2022/03/05 07:30:52;;;;;;;7.28;3.25;;;;;;;;;;7388372;19;20010;-72
2022/03/05 07:33:18;;;;;;;6.30;2.53;;;;;;;;;;7388099;19;20437;-71
2022/03/05 07:35:43;;;;;;;8.00;2.88;;;;;;;;;;7383943;19;20015;-73
2022/03/05 07:38:09;;;;;;;10.85;3.85;;;;;;;;;;7386685;19;19999;-72
2022/03/05 07:40:34;;;;;;;7.05;2.95;;;;;;;;;;7387231;19;20708;-71
2022/03/05 07:42:59;;;;;;;8.77;3.45;;;;;;;;;;7387386;19;19994;-71
2022/03/05 07:45:25;;;;;;;8.07;3.30;;;;;;;;;;7385464;19;20469;-71
2022/03/05 07:47:50;;;;;;;7.93;3.00;;;;;;;;;;7384575;19;20023;-72
2022/03/05 07:50:16;;;;;;;8.07;3.33;;;;;;;;;;7385548;19;20483;-73
2022/03/05 07:52:41;;;;;;;8.27;3.50;;;;;;;;;;7384482;19;20006;-72
2022/03/05 07:55:07;;;;;;;8.95;3.78;;;;;;;;;;7387089;19;20014;-72
2022/03/05 07:57:33;;;;;;;9.25;3.53;;;;;;;;;;7388173;19;19998;-72
2022/03/05 07:59:58;;;;;;;10.65;4.32;;;;;;;;;;7386471;19;20007;-72
2022/03/05 08:02:24;;;;;;;9.55;4.15;;;;;;;;;;7387530;19;20002;-72
2022/03/05 08:04:49;;;;;;;8.38;3.67;;;;;;;;;;7389545;19;19998;-70
2022/03/05 08:07:15;;;;;;;10.10;4.75;;;;;;;;;;7386555;19;20477;-73
2022/03/05 08:09:42;;;;;;;8.73;4.55;;;;;;;;;;7386987;19;20032;-74
2022/03/05 08:12:08;;;;;;;10.30;4.72;;;;;;;;;;7384705;19;20378;-72
2022/03/05 08:14:33;;;;;;;11.10;5.10;;;;;;;;;;7383309;19;20005;-74
2022/03/05 08:16:58;;;;;;;12.63;5.38;;;;;;;;;;7365237;19;20114;-74
2022/03/05 08:19:23;;;;;;;11.15;5.32;;;;;;;;;;7380928;19;20507;-74
2022/03/05 08:21:49;;;;;;;11.38;4.88;;;;;;;;;;7380567;19;20013;-76
2022/03/05 08:24:14;;;;;;;12.13;5.32;;;;;;;;;;7383675;19;20623;-76
2022/03/05 08:26:39;;;;;;;9.50;4.90;;;;;;;;;;7380828;19;20006;-72
2022/03/05 08:29:05;;;;;;;13.48;5.18;;;;;;;;;;7376906;19;20006;-77
2022/03/05 08:31:31;;;;;;;10.65;4.70;;;;;;;;;;7373406;19;20003;-74
2022/03/05 08:33:58;;;;;;;12.05;5.88;;;;;;;;;;7378611;19;20031;-73
2022/03/05 08:36:24;;;;;;;12.75;5.65;;;;;;;;;;7378961;19;20006;-77
2022/03/05 08:38:49;;;;;;;11.70;5.57;;;;;;;;;;7374611;19;20002;-77
2022/03/05 08:41:14;;;;;;;13.45;6.05;;;;;;;;;;7372139;19;20017;-72
2022/03/05 08:43:40;;;;;;;14.05;6.57;;;;;;;;;;7380958;19;20429;-75
2022/03/05 08:46:06;;;;;;;14.15;6.15;;;;;;;;;;7367787;19;20041;-75
2022/03/05 08:48:32;;;;;;;12.65;6.07;;;;;;;;;;7365016;19;20013;-75
2022/03/05 08:50:57;;;;;;;13.73;6.40;;;;;;;;;;7366189;19;20014;-75
2022/03/05 08:53:23;;;;;;;12.82;6.50;;;;;;;;;;7371477;19;20382;-74
2022/03/05 08:55:48;;;;;;;12.20;6.05;;;;;;;;;;7381210;19;20010;-76
2022/03/05 08:58:14;;;;;;;14.02;6.88;;;;;;;;;;7376853;19;20006;-75
2022/03/05 09:00:40;;;;;;;13.27;7.20;;;;;;;;;;7381937;19;20009;-75
2022/03/05 09:03:05;;;;;;;13.32;6.25;;;;;;;;;;7380541;19;20003;-74
2022/03/05 09:05:31;;;;;;;16.10;7.57;;;;;;;;;;7380516;19;20021;-75
2022/03/05 09:07:56;;;;;;;17.92;7.75;;;;;;;;;;7378792;19;20003;-76
2022/03/05 09:10:22;;;;;;;12.98;6.15;;;;;;;;;;7366636;19;20006;-75
2022/03/05 09:12:47;;;;;;;11.55;6.28;;;;;;;;;;7375636;19;20560;-75
2022/03/05 09:15:12;;;;;;;15.68;6.97;;;;;;;;;;7365382;19;20761;-75
2022/03/05 09:17:38;;;;;;;10.43;5.53;;;;;;;;;;7359477;19;20009;-75
2022/03/05 09:20:04;;;;;;;13.50;6.28;;;;;;;;;;7359380;19;20010;-75
2022/03/05 09:22:30;;;;;;;15.45;7.22;;;;;;;;;;7350641;19;20014;-75
2022/03/05 09:24:55;;;;;;;13.80;7.07;;;;;;;;;;7363732;19;20035;-75
2022/03/05 09:27:20;;;;;;;14.10;7.18;;;;;;;;;;7356978;19;20006;-75
2022/03/05 09:29:46;;;;;;;12.38;6.07;;;;;;;;;;7360823;19;20439;-75
2022/03/05 09:32:11;;;;;;;13.13;6.65;;;;;;;;;;7362633;19;20035;-75
2022/03/05 09:34:36;;;;;;;13.30;6.75;;;;;;;;;;7370842;19;20022;-75
2022/03/05 09:37:02;;;;;;;13.05;7.20;;;;;;;;;;7369988;19;20006;-75
2022/03/05 09:39:28;;;;;;;12.93;6.13;;;;;;;;;;7372275;19;20050;-75
2022/03/05 09:41:54;;;;;;;14.02;7.45;;;;;;;;;;7369337;19;20586;-74
2022/03/05 09:44:20;;;;;;;14.48;7.15;;;;;;;;;;7375016;19;20026;-76
2022/03/05 09:46:46;;;;;;;12.40;6.57;;;;;;;;;;7359499;19;20021;-75
2022/03/05 09:49:12;;;;;;;12.48;6.13;;;;;;;;;;7368332;19;20056;-74
2022/03/05 09:51:37;;;;;;;14.23;6.22;;;;;;;;;;7372711;19;20002;-75
2022/03/05 09:54:03;;;;;;;11.65;6.22;;;;;;;;;;7378743;19;20006;-75
2022/03/05 09:56:29;;;;;;;14.65;6.97;;;;;;;;;;7373082;19;20010;-75
2022/03/05 09:58:54;;;;;;;12.63;6.80;;;;;;;;;;7377963;19;20029;-75
2022/03/05 10:01:20;;;;;;;12.07;6.55;;;;;;;;;;7376585;19;20019;-75
2022/03/05 10:03:51;;;;;;;11.52;6.13;;;;;;;;;;7376379;19;20007;-74
2022/03/05 10:06:26;;;;;;;13.85;6.60;;;;;;;;;;7375267;19;20017;-75
2022/03/05 10:08:51;;;;;;;13.70;6.18;;;;;;;;;;7374018;19;20009;-75
2022/03/05 10:11:18;;;;;;;14.07;6.45;;;;;;;;;;7376637;19;20014;-75
2022/03/05 10:13:43;;;;;;;13.25;6.20;;;;;;;;;;7375973;19;20007;-75
2022/03/05 10:16:33;;;;;;;11.93;5.65;;;;;;;;;;7374315;19;20013;-75
2022/03/05 10:19:22;;;;;;;11.48;5.88;;;;;;;;;;7375361;19;20031;-72
2022/03/05 10:22:06;;;;;;;14.25;6.50;;;;;;;;;;7345958;19;20025;-72
2022/03/05 10:24:36;;;;;;;10.32;5.32;;;;;;;;;;7377043;19;19999;-75
2022/03/05 10:27:02;;;;;;;11.77;5.65;;;;;;;;;;7374480;19;20010;-75
2022/03/05 10:29:34;;;;;;;17.25;6.78;;;;;;;;;;7372571;19;20039;-72
2022/03/05 10:32:08;;;;;;;11.98;5.88;;;;;;;;;;7375519;19;20022;-75
2022/03/05 10:34:47;;;;;;;12.15;5.68;;;;;;;;;;7378691;19;20442;-75
2022/03/05 10:37:12;;;;;;;8.98;4.30;;;;;;;;;;7377279;19;20013;-75
2022/03/05 10:39:37;;;;;;;8.27;5.20;;;;;;;;;;7376535;19;20002;-72
2022/03/05 10:42:25;;;;;;;8.15;4.60;;;;;;;;;;7376192;19;20003;-73
2022/03/05 10:45:02;;;;;;;12.02;5.20;;;;;;;;;;7376478;19;20002;-73
2022/03/05 10:47:41;;;;;;;7.72;4.25;;;;;;;;;;7373819;19;20559;-73
2022/03/05 10:50:24;;;;;;;7.60;4.22;;;;;;;;;;7375380;19;20007;-75
2022/03/05 10:52:56;;;;;;;9.43;4.55;;;;;;;;;;7377480;19;20015;-74
2022/03/05 10:55:26;;;;;;;7.88;4.20;;;;;;;;;;7376216;19;20010;-74
2022/03/05 10:58:03;;;;;;;6.18;3.58;;;;;;;;;;7376532;19;20022;-75
2022/03/05 11:00:30;;;;;;;10.27;4.18;;;;;;;;;;7372655;19;20453;-73
2022/03/05 11:02:57;;;;;;;5.47;3.35;;;;;;;;;;7375261;19;20081;-74
2022/03/05 11:05:23;;;;;;;6.97;3.45;;;;;;;;;;7374575;19;20013;-75
2022/03/05 11:07:49;;;;;;;8.07;5.18;;;;;;;;;;7374966;19;20019;-75
2022/03/05 11:10:17;;;;;;;8.00;4.53;;;;;;;;;;7375926;19;20013;-73
2022/03/05 11:12:45;;;;;;;6.68;4.07;;;;;;;;;;7375140;19;20055;-73
2022/03/05 11:15:11;;;;;;;8.25;4.13;;;;;;;;;;7373881;19;20018;-72
2022/03/05 11:17:36;;;;;;;6.80;3.92;;;;;;;;;;7373329;19;20031;-73
2022/03/05 11:20:03;;;;;;;7.07;3.47;;;;;;;;;;7375104;19;20007;-73
2022/03/05 11:22:29;;;;;;;6.55;3.75;;;;;;;;;;7381289;19;20013;-73
2022/03/05 11:24:55;;;;;;;8.30;3.80;;;;;;;;;;7384919;19;20042;-73
2022/03/05 11:27:20;;;;;;;7.00;3.55;;;;;;;;;;7380873;19;20535;-75
2022/03/05 11:30:00;;;;;;;6.63;3.70;;;;;;;;;;7382084;19;20532;-72
2022/03/05 11:32:30;;;;;;;7.95;3.63;;;;;;;;;;7377780;19;20693;-73
2022/03/05 11:34:56;;;;;;;8.43;3.58;;;;;;;;;;7382649;19;20010;-74
2022/03/05 11:37:36;;;;;;;6.93;3.60;;;;;;;;;;7372199;19;20142;-74
2022/03/05 11:40:06;;;;;;;5.68;3.10;;;;;;;;;;7375547;19;20013;-73
2022/03/05 11:42:37;;;;;;;6.85;3.45;;;;;;;;;;7377025;19;20017;-73
2022/03/05 11:45:26;;;;;;;8.20;3.38;;;;;;;;;;7374961;19;20333;-72
2022/03/05 11:47:51;;;;;;;5.25;3.55;;;;;;;;;;7373284;19;20428;-74
2022/03/05 11:50:17;;;;;;;5.43;2.80;;;;;;;;;;7374842;19;20086;-73
2022/03/05 11:52:42;;;;;;;5.43;3.30;;;;;;;;;;7373012;19;20011;-73
2022/03/05 11:55:10;;;;;;;6.07;3.10;;;;;;;;;;7375868;19;20447;-73
2022/03/05 11:57:36;;;;;;;5.35;3.10;;;;;;;;;;7374701;19;20002;-74
2022/03/05 12:00:03;;;;;;;6.80;3.35;;;;;;;;;;7372324;19;20444;-74
2022/03/05 12:02:41;;;;;;;5.22;3.50;;;;;;;;;;7374248;19;20046;-73
2022/03/05 12:05:06;;;;;;;6.50;3.38;;;;;;;;;;7374263;19;20423;-74
2022/03/05 12:07:41;;;;;;;7.07;3.33;;;;;;;;;;7370230;19;20039;-73
2022/03/05 12:10:14;;;;;;;4.43;3.15;;;;;;;;;;7372196;19;20006;-73
2022/03/05 12:12:53;;;;;;;5.90;3.47;;;;;;;;;;7379055;19;20018;-74
2022/03/05 12:15:24;;;;;;;5.28;3.15;;;;;;;;;;7377146;19;20010;-73
2022/03/05 12:17:51;;;;;;;5.63;3.70;;;;;;;;;;7378465;19;20010;-74
2022/03/05 12:20:20;;;;;;;7.22;3.80;;;;;;;;;;7378006;19;20011;-73
2022/03/05 12:22:55;;;;;;;7.38;3.95;;;;;;;;;;7375042;19;20018;-73
2022/03/05 12:25:21;;;;;;;6.40;3.78;;;;;;;;;;7376621;19;20039;-74
2022/03/05 12:27:50;;;;;;;11.63;5.32;;;;;;;;;;7376331;19;19995;-73
2022/03/05 12:30:19;;;;;;;5.53;3.55;;;;;;;;;;7373253;19;20006;-74
2022/03/05 12:32:47;;;;;;;5.35;3.20;;;;;;;;;;7375939;19;20003;-73
2022/03/05 12:35:14;;;;;;;5.90;3.05;;;;;;;;;;7376498;19;20006;-73
2022/03/05 12:37:40;;;;;;;6.53;3.75;;;;;;;;;;7376800;19;20447;-74
2022/03/05 12:40:06;;;;;;;6.28;3.40;;;;;;;;;;7373046;19;20013;-73
2022/03/05 12:42:35;;;;;;;9.15;3.95;;;;;;;;;;7377066;19;20006;-74
2022/03/05 12:45:00;;;;;;;5.35;3.47;;;;;;;;;;7378251;19;20127;-74
2022/03/05 12:47:35;;;;;;;7.03;4.10;;;;;;;;;;7372120;19;20050;-74
2022/03/05 12:50:27;;;;;;;9.77;3.67;;;;;;;;;;7375607;19;20010;-74
2022/03/05 12:52:56;;;;;;;6.55;3.47;;;;;;;;;;7376927;19;20041;-74
2022/03/05 12:55:23;;;;;;;6.03;3.28;;;;;;;;;;7377401;19;20015;-73
2022/03/05 12:57:49;;;;;;;8.00;3.80;;;;;;;;;;7375298;19;20014;-73
2022/03/05 13:00:15;;;;;;;6.72;3.53;;;;;;;;;;7370549;19;20006;-74
2022/03/05 13:02:40;;;;;;;6.97;3.70;;;;;;;;;;7375528;19;20010;-73
2022/03/05 13:05:16;;;;;;;6.40;3.47;;;;;;;;;;7376055;19;20015;-73
2022/03/05 13:07:42;;;;;;;6.18;3.70;;;;;;;;;;7373932;19;20023;-73
2022/03/05 13:10:09;;;;;;;7.00;3.50;;;;;;;;;;7370728;19;20346;-73
2022/03/05 13:12:38;;;;;;;6.60;3.42;;;;;;;;;;7364914;19;20023;-74
2022/03/05 13:15:05;;;;;;;8.10;4.28;;;;;;;;;;7363741;19;20429;-73
2022/03/05 13:17:30;;;;;;;8.40;4.03;;;;;;;;;;7371629;19;20006;-76
2022/03/05 13:20:02;;;;;;;10.25;4.18;;;;;;;;;;7371047;19;20026;-73
2022/03/05 13:22:28;;;;;;;6.32;3.60;;;;;;;;;;7370899;19;20054;-73
2022/03/05 13:24:53;;;;;;;5.90;3.70;;;;;;;;;;7379166;19;20520;-73
2022/03/05 13:27:26;;;;;;;5.72;3.28;;;;;;;;;;7380178;19;20007;-73
2022/03/05 13:29:52;;;;;;;5.18;2.97;;;;;;;;;;7382488;19;20465;-73
2022/03/05 13:32:24;;;;;;;5.43;3.50;;;;;;;;;;7382027;19;20034;-73
2022/03/05 13:35:04;;;;;;;7.22;3.88;;;;;;;;;;7380235;19;20560;-72
2022/03/05 13:37:29;;;;;;;6.55;3.95;;;;;;;;;;7381531;19;20031;-73
2022/03/05 13:40:00;;;;;;;7.32;4.22;;;;;;;;;;7383310;19;20087;-73
2022/03/05 13:42:33;;;;;;;7.32;4.65;;;;;;;;;;7381941;19;20059;-73
2022/03/05 13:45:04;;;;;;;5.75;3.83;;;;;;;;;;7382618;19;20516;-74
2022/03/05 13:47:30;;;;;;;7.45;4.22;;;;;;;;;;7382924;19;20034;-74
2022/03/05 13:50:03;;;;;;;9.93;4.07;;;;;;;;;;7381205;19;20383;-73
2022/03/05 13:52:31;;;;;;;7.70;3.92;;;;;;;;;;7381813;19;20010;-72
2022/03/05 13:55:06;;;;;;;9.07;4.28;;;;;;;;;;7376088;19;20540;-75
2022/03/05 13:57:33;;;;;;;7.65;4.55;;;;;;;;;;7378321;19;20412;-74
2022/03/05 14:00:13;;;;;;;7.55;4.07;;;;;;;;;;7380226;19;20086;-74
2022/03/05 14:02:39;;;;;;;9.65;4.53;;;;;;;;;;7380050;19;20018;-74
2022/03/05 14:05:13;;;;;;;6.85;4.07;;;;;;;;;;7380052;19;20091;-75
2022/03/05 14:07:41;;;;;;;6.78;4.35;;;;;;;;;;7379610;19;20030;-73
2022/03/05 14:10:08;;;;;;;6.97;4.13;;;;;;;;;;7378858;19;20002;-73
2022/03/05 14:12:35;;;;;;;7.32;3.88;;;;;;;;;;7377536;19;20360;-75
2022/03/05 14:15:06;;;;;;;7.93;4.18;;;;;;;;;;7381479;19;20011;-74
2022/03/05 14:17:40;;;;;;;7.97;4.30;;;;;;;;;;7380363;19;20106;-75
2022/03/05 14:20:21;;;;;;;7.45;4.70;;;;;;;;;;7378264;19;20034;-74
2022/03/05 14:22:53;;;;;;;13.52;5.00;;;;;;;;;;7380253;19;20035;-74
2022/03/05 14:25:19;;;;;;;7.28;4.15;;;;;;;;;;7381545;19;20010;-75
2022/03/05 14:27:46;;;;;;;10.50;4.30;;;;;;;;;;7380207;19;20006;-74
2022/03/05 14:30:12;;;;;;;8.30;4.32;;;;;;;;;;7370497;19;20003;-74
2022/03/05 14:32:39;;;;;;;7.47;4.47;;;;;;;;;;7374255;19;20011;-75
2022/03/05 14:35:08;;;;;;;7.35;4.45;;;;;;;;;;7370531;19;20021;-74
2022/03/05 14:37:34;;;;;;;8.57;4.60;;;;;;;;;;7374418;19;20146;-74
2022/03/05 14:39:59;;;;;;;6.75;4.35;;;;;;;;;;7374548;19;20047;-74
2022/03/05 14:42:24;;;;;;;8.63;5.28;;;;;;;;;;7373887;19;20111;-75